createdAt,value
2018-10-11T00:00:52.900Z,0.00
2018-10-11T00:01:52.867Z,0.00
2018-10-11T00:02:52.806Z,0.00
2018-10-11T00:03:52.770Z,0.00
2018-10-11T00:04:52.729Z,0.00
2018-10-11T00:05:52.693Z,0.00
2018-10-11T00:06:52.646Z,0.00
2018-10-11T00:07:52.636Z,0.00
2018-10-11T00:08:52.571Z,0.00
2018-10-11T00:09:52.533Z,0.00
2018-10-11T00:10:52.501Z,0.00
2018-10-11T00:11:52.463Z,0.00
2018-10-11T00:12:52.447Z,0.00
2018-10-11T00:13:52.386Z,0.00
2018-10-11T00:14:52.343Z,0.00
2018-10-11T00:15:52.306Z,0.00
2018-10-11T00:16:52.271Z,0.00
2018-10-11T00:17:52.261Z,0.00
2018-10-11T00:18:52.188Z,0.00
2018-10-11T00:19:52.168Z,0.00
2018-10-11T00:20:52.112Z,0.00
2018-10-11T00:21:52.074Z,0.00
2018-10-11T00:22:52.041Z,0.00
2018-10-11T00:23:52.026Z,0.00
2018-10-11T00:24:51.970Z,0.00
2018-10-11T00:25:51.929Z,0.00
2018-10-11T00:26:51.881Z,0.00
2018-10-11T00:27:51.846Z,0.00
2018-10-11T00:28:51.838Z,0.00
2018-10-11T00:29:51.769Z,0.00
2018-10-11T00:30:51.852Z,0.00
2018-10-11T00:31:51.700Z,0.00
2018-10-11T00:32:51.656Z,0.00
2018-10-11T00:33:51.643Z,0.00
2018-10-11T00:34:51.584Z,0.00
2018-10-11T00:35:51.545Z,0.00
2018-10-11T00:36:51.505Z,0.00
2018-10-11T00:37:51.474Z,0.00
2018-10-11T00:38:51.445Z,0.00
2018-10-11T00:39:51.385Z,0.00
2018-10-11T00:40:51.350Z,0.00
2018-10-11T00:41:51.311Z,0.00
2018-10-11T00:42:51.278Z,0.00
2018-10-11T00:43:51.239Z,0.00
2018-10-11T00:44:51.221Z,0.00
2018-10-11T00:45:51.164Z,0.00
2018-10-11T00:46:51.120Z,0.00
2018-10-11T00:47:51.079Z,0.00
2018-10-11T00:48:51.046Z,0.00
2018-10-11T00:49:51.036Z,0.00
2018-10-11T00:50:50.960Z,0.00
2018-10-11T00:51:50.924Z,0.00
2018-10-11T00:52:50.885Z,0.00
2018-10-11T00:53:50.855Z,0.00
2018-10-11T00:54:50.842Z,0.00
2018-10-11T00:55:50.780Z,0.00
2018-10-11T00:56:50.742Z,0.00
2018-10-11T00:57:50.704Z,0.00
2018-10-11T00:58:50.657Z,0.00
2018-10-11T00:59:50.617Z,0.00
2018-10-11T01:00:50.603Z,0.00
2018-10-11T01:01:50.541Z,0.00
2018-10-11T01:02:50.510Z,0.00
2018-10-11T01:03:50.498Z,0.00
2018-10-11T01:04:50.431Z,0.00
2018-10-11T01:05:50.409Z,0.00
2018-10-11T01:06:50.356Z,0.00
2018-10-11T01:07:50.316Z,0.00
2018-10-11T01:08:50.278Z,0.00
2018-10-11T01:09:50.248Z,0.00
2018-10-11T01:10:50.222Z,0.00
2018-10-11T01:11:50.159Z,0.00
2018-10-11T01:12:50.124Z,0.00
2018-10-11T01:13:50.079Z,0.00
2018-10-11T01:14:50.046Z,0.00
2018-10-11T01:15:50.010Z,0.00
2018-10-11T01:16:49.997Z,0.00
2018-10-11T01:17:49.935Z,0.00
2018-10-11T01:18:49.888Z,0.00
2018-10-11T01:19:49.849Z,0.00
2018-10-11T01:20:49.848Z,0.00
2018-10-11T01:21:49.784Z,0.00
2018-10-11T01:22:49.732Z,0.00
2018-10-11T01:23:49.732Z,0.00
2018-10-11T01:24:49.662Z,0.00
2018-10-11T01:25:49.622Z,0.00
2018-10-11T01:26:49.614Z,0.00
2018-10-11T01:27:49.546Z,0.00
2018-10-11T01:28:49.511Z,0.00
2018-10-11T01:29:49.604Z,0.00
2018-10-11T01:30:49.429Z,0.00
2018-10-11T01:31:49.417Z,0.00
2018-10-11T01:32:49.348Z,0.00
2018-10-11T01:33:49.314Z,0.00
2018-10-11T01:34:49.280Z,0.00
2018-10-11T01:35:49.239Z,0.00
2018-10-11T01:36:49.197Z,0.00
2018-10-11T01:37:49.183Z,0.00
2018-10-11T01:38:49.261Z,0.00
2018-10-11T01:39:49.088Z,0.00
2018-10-11T01:40:49.051Z,0.00
2018-10-11T01:41:49.015Z,0.00
2018-10-11T01:42:48.989Z,0.00
2018-10-11T01:43:48.926Z,0.00
2018-10-11T01:44:48.890Z,0.00
2018-10-11T01:45:48.848Z,0.00
2018-10-11T01:46:48.846Z,0.00
2018-10-11T01:47:48.778Z,0.00
2018-10-11T01:48:48.740Z,0.00
2018-10-11T01:49:48.702Z,0.00
2018-10-11T01:50:48.654Z,0.00
2018-10-11T01:51:48.614Z,0.00
2018-10-11T01:52:48.610Z,0.00
2018-10-11T01:53:48.545Z,0.00
2018-10-11T01:54:48.503Z,0.00
2018-10-11T01:55:48.463Z,0.00
2018-10-11T01:56:48.430Z,0.00
2018-10-11T01:57:48.383Z,0.00
2018-10-11T01:58:48.379Z,0.00
2018-10-11T01:59:48.317Z,0.00
2018-10-11T02:00:48.277Z,0.00
2018-10-11T02:01:48.268Z,0.00
2018-10-11T02:02:48.191Z,0.00
2018-10-11T02:03:48.179Z,0.00
2018-10-11T02:04:48.147Z,0.00
2018-10-11T02:05:48.073Z,0.00
2018-10-11T02:06:48.044Z,0.00
2018-10-11T02:07:48.005Z,0.00
2018-10-11T02:08:47.998Z,0.00
2018-10-11T02:09:47.944Z,0.00
2018-10-11T02:10:47.890Z,0.00
2018-10-11T02:11:47.849Z,0.00
2018-10-11T02:12:47.812Z,0.00
2018-10-11T02:13:47.774Z,0.00
2018-10-11T02:14:47.752Z,0.00
2018-10-11T02:15:47.692Z,0.00
2018-10-11T02:16:47.652Z,0.00
2018-10-11T02:17:47.614Z,0.00
2018-10-11T02:18:47.580Z,0.00
2018-10-11T02:19:47.566Z,0.00
2018-10-11T02:20:47.501Z,0.00
2018-10-11T02:21:47.465Z,0.00
2018-10-11T02:22:47.419Z,0.00
2018-10-11T02:23:47.379Z,0.00
2018-10-11T02:24:47.374Z,0.00
2018-10-11T02:25:47.310Z,0.00
2018-10-11T02:26:47.263Z,0.00
2018-10-11T02:27:47.228Z,0.00
2018-10-11T02:28:47.188Z,0.00
2018-10-11T02:29:47.150Z,0.00
2018-10-11T02:30:47.139Z,0.00
2018-10-11T02:31:47.124Z,0.00
2018-10-11T02:32:47.041Z,0.00
2018-10-11T02:33:47.004Z,0.00
2018-10-11T02:34:46.955Z,0.00
2018-10-11T02:35:46.990Z,0.00
2018-10-11T02:36:46.878Z,0.00
2018-10-11T02:37:46.841Z,0.00
2018-10-11T02:38:46.806Z,0.00
2018-10-11T02:39:46.773Z,0.00
2018-10-11T02:40:46.751Z,0.00
2018-10-11T02:41:46.683Z,0.00
2018-10-11T02:42:46.659Z,0.00
2018-10-11T02:43:46.611Z,0.00
2018-10-11T02:44:46.581Z,0.00
2018-10-11T02:45:46.533Z,0.00
2018-10-11T02:46:46.514Z,0.00
2018-10-11T02:47:46.451Z,0.00
2018-10-11T02:48:46.433Z,0.00
2018-10-11T02:49:46.389Z,0.00
2018-10-11T02:50:46.365Z,0.00
2018-10-11T02:51:46.301Z,0.00
2018-10-11T02:52:46.288Z,0.00
2018-10-11T02:53:46.263Z,0.00
2018-10-11T02:54:46.181Z,0.00
2018-10-11T02:55:46.140Z,0.00
2018-10-11T02:56:46.132Z,0.00
2018-10-11T02:57:46.096Z,0.00
2018-10-11T02:58:46.024Z,0.00
2018-10-11T02:59:45.986Z,0.00
2018-10-11T03:00:45.947Z,0.00
2018-10-11T03:01:45.908Z,0.00
2018-10-11T03:02:45.900Z,0.00
2018-10-11T03:03:45.837Z,0.00
2018-10-11T03:04:45.808Z,0.00
2018-10-11T03:05:45.759Z,0.00
2018-10-11T03:06:45.711Z,0.00
2018-10-11T03:07:45.696Z,0.00
2018-10-11T03:08:54.638Z,0.00
2018-10-11T03:09:55.651Z,0.00
2018-10-11T03:10:54.707Z,0.00
2018-10-11T03:11:54.724Z,0.00
2018-10-11T03:12:54.280Z,0.00
2018-10-11T03:13:55.799Z,0.00
2018-10-11T03:14:55.837Z,0.00
2018-10-11T03:15:54.865Z,0.00
2018-10-11T03:16:55.403Z,0.00
2018-10-11T03:17:55.431Z,0.00
2018-10-11T03:18:53.980Z,0.00
2018-10-11T03:19:55.503Z,0.00
2018-10-11T03:20:55.546Z,0.00
2018-10-11T03:21:54.594Z,0.00
2018-10-11T03:22:54.118Z,0.00
2018-10-11T03:23:53.673Z,0.00
2018-10-11T03:24:45.012Z,0.00
2018-10-11T03:25:44.970Z,0.00
2018-10-11T03:26:44.922Z,0.00
2018-10-11T03:27:44.881Z,0.00
2018-10-11T03:28:44.876Z,0.00
2018-10-11T03:29:44.808Z,0.00
2018-10-11T03:30:44.763Z,0.00
2018-10-11T03:31:44.721Z,0.00
2018-10-11T03:32:44.683Z,0.00
2018-10-11T03:33:44.675Z,0.00
2018-10-11T03:34:44.608Z,0.00
2018-10-11T03:35:44.573Z,0.00
2018-10-11T03:36:44.536Z,0.00
2018-10-11T03:37:44.494Z,0.00
2018-10-11T03:38:44.468Z,0.00
2018-10-11T03:39:44.404Z,0.00
2018-10-11T03:40:44.367Z,0.00
2018-10-11T03:41:54.688Z,0.00
2018-10-11T03:42:53.730Z,0.00
2018-10-11T03:43:53.270Z,0.00
2018-10-11T03:44:53.275Z,0.00
2018-10-11T03:45:54.322Z,0.00
2018-10-11T03:46:53.348Z,0.00
2018-10-11T03:47:54.395Z,0.00
2018-10-11T03:48:51.577Z,0.00
2018-10-11T03:49:52.996Z,0.00
2018-10-11T03:50:52.998Z,0.00
2018-10-11T03:51:53.031Z,0.00
2018-10-11T03:52:53.059Z,0.00
2018-10-11T03:53:53.105Z,0.00
2018-10-11T03:54:52.639Z,0.00
2018-10-11T03:55:53.159Z,0.00
2018-10-11T03:56:43.746Z,0.00
2018-10-11T03:57:43.725Z,0.00
2018-10-11T03:58:43.660Z,0.00
2018-10-11T03:59:43.645Z,0.00
2018-10-11T04:00:43.571Z,0.00
2018-10-11T04:01:43.537Z,0.00
2018-10-11T04:02:43.522Z,0.00
2018-10-11T04:03:43.457Z,0.00
2018-10-11T04:04:43.415Z,0.00
2018-10-11T04:05:43.397Z,0.00
2018-10-11T04:06:43.332Z,0.00
2018-10-11T04:07:43.295Z,0.00
2018-10-11T04:08:43.265Z,0.00
2018-10-11T04:09:43.224Z,0.00
2018-10-11T04:10:43.205Z,0.00
2018-10-11T04:11:43.140Z,0.00
2018-10-11T04:12:43.099Z,0.00
2018-10-11T04:13:43.056Z,0.00
2018-10-11T04:14:43.016Z,0.00
2018-10-11T04:15:43.005Z,0.00
2018-10-11T04:16:42.945Z,0.00
2018-10-11T04:17:42.903Z,0.00
2018-10-11T04:18:42.856Z,0.00
2018-10-11T04:19:42.818Z,0.00
2018-10-11T04:20:42.812Z,0.00
2018-10-11T04:21:42.743Z,0.00
2018-10-11T04:22:42.708Z,0.00
2018-10-11T04:23:42.669Z,0.00
2018-10-11T04:24:42.617Z,0.00
2018-10-11T04:25:42.581Z,0.00
2018-10-11T04:26:42.563Z,0.00
2018-10-11T04:27:42.495Z,0.00
2018-10-11T04:28:42.462Z,0.00
2018-10-11T04:29:42.432Z,0.00
2018-10-11T04:30:42.383Z,0.00
2018-10-11T04:31:42.372Z,0.00
2018-10-11T04:32:42.297Z,0.00
2018-10-11T04:33:42.261Z,0.00
2018-10-11T04:34:42.226Z,0.00
2018-10-11T04:35:42.186Z,0.00
2018-10-11T04:36:42.169Z,0.00
2018-10-11T04:37:42.099Z,0.00
2018-10-11T04:38:42.056Z,0.00
2018-10-11T04:39:42.019Z,0.00
2018-10-11T04:40:41.986Z,0.00
2018-10-11T04:41:41.944Z,0.00
2018-10-11T04:42:41.938Z,0.00
2018-10-11T04:43:41.864Z,0.00
2018-10-11T04:44:41.822Z,0.00
2018-10-11T04:45:41.776Z,0.00
2018-10-11T04:46:41.737Z,0.00
2018-10-11T04:47:41.720Z,0.00
2018-10-11T04:48:41.688Z,0.00
2018-10-11T04:49:41.624Z,0.00
2018-10-11T04:50:41.582Z,0.00
2018-10-11T04:51:41.535Z,0.00
2018-10-11T04:52:41.533Z,0.00
2018-10-11T04:53:41.537Z,0.00
2018-10-11T04:54:41.421Z,0.00
2018-10-11T04:55:41.384Z,0.00
2018-10-11T04:56:41.334Z,0.00
2018-10-11T04:57:41.299Z,0.00
2018-10-11T04:58:41.280Z,0.00
2018-10-11T04:59:41.273Z,0.00
2018-10-11T05:00:41.185Z,0.00
2018-10-11T05:01:41.144Z,0.00
2018-10-11T05:02:41.101Z,0.00
2018-10-11T05:03:41.089Z,0.00
2018-10-11T05:04:41.023Z,0.00
2018-10-11T05:05:40.976Z,0.00
2018-10-11T05:06:40.939Z,0.00
2018-10-11T05:07:40.906Z,0.00
2018-10-11T05:08:40.879Z,0.00
2018-10-11T05:09:40.815Z,0.00
2018-10-11T05:10:41.107Z,0.00
2018-10-11T05:11:41.021Z,0.00
2018-10-11T05:12:40.703Z,0.00
2018-10-11T05:13:40.702Z,0.00
2018-10-11T05:14:40.624Z,0.00
2018-10-11T05:15:40.583Z,0.00
2018-10-11T05:16:40.536Z,0.00
2018-10-11T05:17:40.523Z,0.00
2018-10-11T05:18:40.457Z,0.00
2018-10-11T05:19:40.445Z,0.00
2018-10-11T05:20:40.391Z,0.00
2018-10-11T05:21:40.358Z,0.00
2018-10-11T05:22:40.302Z,0.00
2018-10-11T05:23:40.256Z,0.00
2018-10-11T05:24:40.233Z,0.00
2018-10-11T05:25:40.217Z,0.00
2018-10-11T05:26:40.146Z,0.00
2018-10-11T05:27:40.111Z,0.00
2018-10-11T05:28:40.060Z,0.00
2018-10-11T05:29:40.023Z,0.00
2018-10-11T05:30:40.010Z,0.00
2018-10-11T05:31:39.938Z,0.00
2018-10-11T05:32:39.909Z,0.00
2018-10-11T05:33:39.878Z,0.00
2018-10-11T05:34:39.827Z,0.00
2018-10-11T05:35:39.820Z,0.00
2018-10-11T05:36:39.739Z,0.00
2018-10-11T05:37:39.701Z,5.63
2018-10-11T05:38:39.676Z,5.63
2018-10-11T05:39:39.628Z,5.63
2018-10-11T05:40:39.587Z,5.63
2018-10-11T05:41:39.575Z,5.63
2018-10-11T05:42:39.505Z,5.63
2018-10-11T05:43:39.467Z,11.25
2018-10-11T05:44:39.432Z,11.25
2018-10-11T05:45:39.394Z,11.25
2018-10-11T05:46:39.381Z,11.25
2018-10-11T05:47:39.311Z,16.88
2018-10-11T05:48:39.275Z,16.88
2018-10-11T05:49:39.225Z,16.88
2018-10-11T05:50:39.186Z,22.50
2018-10-11T05:51:39.175Z,22.50
2018-10-11T05:52:39.119Z,22.50
2018-10-11T05:53:39.074Z,28.13
2018-10-11T05:54:39.029Z,28.13
2018-10-11T05:55:38.990Z,28.13
2018-10-11T05:56:39.049Z,33.75
2018-10-11T05:57:38.923Z,33.75
2018-10-11T05:58:38.882Z,39.38
2018-10-11T05:59:38.834Z,39.38
2018-10-11T06:00:38.788Z,45.00
2018-10-11T06:01:38.781Z,45.00
2018-10-11T06:02:38.717Z,45.00
2018-10-11T06:03:38.680Z,50.63
2018-10-11T06:04:38.628Z,50.63
2018-10-11T06:05:38.587Z,56.25
2018-10-11T06:06:38.579Z,56.25
2018-10-11T06:07:38.510Z,61.88
2018-10-11T06:08:38.478Z,61.88
2018-10-11T06:09:38.437Z,67.50
2018-10-11T06:10:38.391Z,73.13
2018-10-11T06:11:38.375Z,73.13
2018-10-11T06:12:38.345Z,78.75
2018-10-11T06:13:38.285Z,78.75
2018-10-11T06:14:38.239Z,84.38
2018-10-11T06:15:38.205Z,84.38
2018-10-11T06:16:38.157Z,90.00
2018-10-11T06:17:38.136Z,90.00
2018-10-11T06:18:38.096Z,95.63
2018-10-11T06:19:38.044Z,95.63
2018-10-11T06:20:38.028Z,101.25
2018-10-11T06:21:37.972Z,106.88
2018-10-11T06:22:37.938Z,106.88
2018-10-11T06:23:37.911Z,112.50
2018-10-11T06:24:37.847Z,123.75
2018-10-11T06:25:37.801Z,146.25
2018-10-11T06:26:37.766Z,174.38
2018-10-11T06:27:37.725Z,202.50
2018-10-11T06:28:37.705Z,202.50
2018-10-11T06:29:37.640Z,213.75
2018-10-11T06:30:37.595Z,219.38
2018-10-11T06:31:37.560Z,225.00
2018-10-11T06:32:37.529Z,236.25
2018-10-11T06:33:37.520Z,241.88
2018-10-11T06:34:37.452Z,247.50
2018-10-11T06:35:37.454Z,253.13
2018-10-11T06:36:37.427Z,258.75
2018-10-11T06:37:37.325Z,264.38
2018-10-11T06:38:37.297Z,270.00
2018-10-11T06:39:37.283Z,275.63
2018-10-11T06:40:37.219Z,281.25
2018-10-11T06:41:37.183Z,286.88
2018-10-11T06:42:37.159Z,292.50
2018-10-11T06:43:37.101Z,298.13
2018-10-11T06:44:37.065Z,303.75
2018-10-11T06:45:37.051Z,309.38
2018-10-11T06:46:37.012Z,315.00
2018-10-11T06:47:36.956Z,320.63
2018-10-11T06:48:36.908Z,331.88
2018-10-11T06:49:36.900Z,331.88
2018-10-11T06:50:36.841Z,337.50
2018-10-11T06:51:36.811Z,343.13
2018-10-11T06:52:36.768Z,348.75
2018-10-11T06:53:36.731Z,354.38
2018-10-11T06:54:36.694Z,360.00
2018-10-11T06:55:36.689Z,365.63
2018-10-11T06:56:36.613Z,371.25
2018-10-11T06:57:36.583Z,376.88
2018-10-11T06:58:36.556Z,376.88
2018-10-11T06:59:36.511Z,382.50
2018-10-11T07:00:36.498Z,393.75
2018-10-11T07:01:36.512Z,399.38
2018-10-11T07:02:36.406Z,405.00
2018-10-11T07:03:36.359Z,410.63
2018-10-11T07:04:36.330Z,416.25
2018-10-11T07:05:36.322Z,410.63
2018-10-11T07:06:36.256Z,416.25
2018-10-11T07:07:36.228Z,421.88
2018-10-11T07:08:36.179Z,427.50
2018-10-11T07:09:36.152Z,433.13
2018-10-11T07:10:36.107Z,438.75
2018-10-11T07:11:36.098Z,444.38
2018-10-11T07:12:36.066Z,450.00
2018-10-11T07:13:36.011Z,455.63
2018-10-11T07:14:35.964Z,461.25
2018-10-11T07:15:35.928Z,466.88
2018-10-11T07:16:35.924Z,483.75
2018-10-11T07:17:35.867Z,483.75
2018-10-11T07:18:35.828Z,495.00
2018-10-11T07:19:35.794Z,489.38
2018-10-11T07:20:35.756Z,495.00
2018-10-11T07:21:35.747Z,500.63
2018-10-11T07:22:35.684Z,523.13
2018-10-11T07:23:35.649Z,517.50
2018-10-11T07:24:35.622Z,528.75
2018-10-11T07:25:35.586Z,534.38
2018-10-11T07:26:35.551Z,551.25
2018-10-11T07:27:35.539Z,568.13
2018-10-11T07:28:35.473Z,579.38
2018-10-11T07:29:35.440Z,601.88
2018-10-11T07:30:35.415Z,618.75
2018-10-11T07:31:36.488Z,641.25
2018-10-11T07:32:35.361Z,658.13
2018-10-11T07:33:35.300Z,675.00
2018-10-11T07:34:35.329Z,691.88
2018-10-11T07:35:35.317Z,720.00
2018-10-11T07:36:35.206Z,736.88
2018-10-11T07:37:35.191Z,759.38
2018-10-11T07:38:35.158Z,776.25
2018-10-11T07:39:35.102Z,787.50
2018-10-11T07:40:35.111Z,793.13
2018-10-11T07:41:35.032Z,798.75
2018-10-11T07:42:34.992Z,810.00
2018-10-11T07:43:35.051Z,826.88
2018-10-11T07:44:34.929Z,843.75
2018-10-11T07:45:34.898Z,855.00
2018-10-11T07:46:34.861Z,877.50
2018-10-11T07:47:34.830Z,894.38
2018-10-11T07:48:34.825Z,916.88
2018-10-11T07:49:34.762Z,945.00
2018-10-11T07:50:34.726Z,967.50
2018-10-11T07:51:34.692Z,990.00
2018-10-11T07:52:34.653Z,1012.50
2018-10-11T07:53:34.649Z,1035.00
2018-10-11T07:54:34.585Z,1051.88
2018-10-11T07:55:34.553Z,1068.75
2018-10-11T07:56:34.522Z,1119.38
2018-10-11T07:57:34.496Z,1153.13
2018-10-11T07:58:34.458Z,1125.00
2018-10-11T07:59:34.443Z,1141.88
2018-10-11T08:00:34.381Z,1130.63
2018-10-11T08:01:34.402Z,1080.00
2018-10-11T08:02:34.323Z,1096.88
2018-10-11T08:03:34.339Z,1085.63
2018-10-11T08:04:34.272Z,1068.75
2018-10-11T08:05:34.212Z,1051.88
2018-10-11T08:06:34.178Z,1068.75
2018-10-11T08:07:34.164Z,1096.88
2018-10-11T08:08:34.172Z,1113.75
2018-10-11T08:09:34.111Z,1108.13
2018-10-11T08:10:34.124Z,1096.88
2018-10-11T08:11:34.082Z,1085.63
2018-10-11T08:12:33.981Z,1091.25
2018-10-11T08:13:33.961Z,1096.88
2018-10-11T08:14:34.049Z,1102.50
2018-10-11T08:15:33.915Z,1113.75
2018-10-11T08:16:33.913Z,1136.25
2018-10-11T08:17:34.242Z,1147.50
2018-10-11T08:18:33.867Z,1164.38
2018-10-11T08:19:33.952Z,1198.13
2018-10-11T08:20:33.795Z,1248.75
2018-10-11T08:21:33.695Z,1288.13
2018-10-11T08:22:33.658Z,1282.50
2018-10-11T08:23:33.618Z,1265.63
2018-10-11T08:24:33.591Z,1265.63
2018-10-11T08:25:33.951Z,1226.25
2018-10-11T08:26:33.540Z,1215.00
2018-10-11T08:27:33.480Z,1175.63
2018-10-11T08:28:33.452Z,1164.38
2018-10-11T08:29:33.440Z,1170.00
2018-10-11T08:30:33.386Z,1209.38
2018-10-11T08:31:33.373Z,1226.25
2018-10-11T08:32:33.451Z,1203.75
2018-10-11T08:33:33.287Z,1192.50
2018-10-11T08:34:33.254Z,1220.63
2018-10-11T08:35:33.219Z,1271.25
2018-10-11T08:36:33.180Z,1327.50
2018-10-11T08:37:33.192Z,1355.63
2018-10-11T08:38:33.203Z,1305.00
2018-10-11T08:39:33.080Z,1350.00
2018-10-11T08:40:33.056Z,1355.63
2018-10-11T08:41:33.021Z,1383.75
2018-10-11T08:42:33.016Z,1378.13
2018-10-11T08:43:33.053Z,1400.63
2018-10-11T08:44:32.923Z,1456.88
2018-10-11T08:45:32.883Z,1428.75
2018-10-11T08:46:32.852Z,1462.50
2018-10-11T08:47:32.819Z,1468.13
2018-10-11T08:48:32.818Z,1366.88
2018-10-11T08:49:32.760Z,1051.88
2018-10-11T08:50:32.766Z,646.88
2018-10-11T08:51:32.692Z,826.88
2018-10-11T08:52:32.666Z,900.00
2018-10-11T08:53:32.751Z,607.50
2018-10-11T08:54:32.600Z,815.63
2018-10-11T08:55:32.654Z,601.88
2018-10-11T08:56:32.528Z,556.88
2018-10-11T08:57:32.493Z,866.25
2018-10-11T08:58:32.462Z,669.38
2018-10-11T08:59:32.484Z,894.38
2018-10-11T09:00:32.404Z,826.88
2018-10-11T09:01:32.392Z,658.13
2018-10-11T09:02:32.360Z,585.00
2018-10-11T09:03:32.403Z,1057.50
2018-10-11T09:04:32.290Z,1895.63
2018-10-11T09:05:32.230Z,2086.88
2018-10-11T09:06:32.201Z,2210.63
2018-10-11T09:07:32.190Z,2233.13
2018-10-11T09:08:32.131Z,2295.00
2018-10-11T09:09:32.132Z,2536.88
2018-10-11T09:10:38.291Z,2655.00
2018-10-11T09:11:32.090Z,2475.00
2018-10-11T09:12:32.004Z,2137.50
2018-10-11T09:13:31.973Z,1912.50
2018-10-11T09:14:31.959Z,1653.75
2018-10-11T09:15:31.959Z,1501.88
2018-10-11T09:16:31.868Z,1451.25
2018-10-11T09:17:31.853Z,1485.00
2018-10-11T09:18:31.795Z,1395.00
2018-10-11T09:19:31.766Z,1209.38
2018-10-11T09:20:31.739Z,1175.63
2018-10-11T09:21:31.713Z,1366.88
2018-10-11T09:22:31.667Z,1327.50
2018-10-11T09:23:31.665Z,1338.75
2018-10-11T09:24:31.619Z,1305.00
2018-10-11T09:25:31.584Z,1327.50
2018-10-11T09:26:31.555Z,1316.25
2018-10-11T09:27:31.520Z,1417.50
2018-10-11T09:28:31.477Z,1423.13
2018-10-11T09:29:31.473Z,1411.88
2018-10-11T09:30:31.447Z,1355.63
2018-10-11T09:31:31.389Z,1338.75
2018-10-11T09:32:31.360Z,1361.25
2018-10-11T09:33:31.353Z,1260.00
2018-10-11T09:34:31.321Z,1108.13
2018-10-11T09:35:31.268Z,866.25
2018-10-11T09:36:31.269Z,1170.00
2018-10-11T09:37:31.198Z,1282.50
2018-10-11T09:38:31.180Z,1254.38
2018-10-11T09:39:31.165Z,1659.38
2018-10-11T09:40:31.103Z,1766.25
2018-10-11T09:41:31.074Z,1873.13
2018-10-11T09:42:31.041Z,1912.50
2018-10-11T09:43:31.010Z,1845.00
2018-10-11T09:44:31.017Z,1648.13
2018-10-11T09:45:30.952Z,1861.88
2018-10-11T09:46:30.920Z,1850.63
2018-10-11T09:47:30.887Z,1839.38
2018-10-11T09:48:30.852Z,2041.88
2018-10-11T09:49:30.821Z,2148.75
2018-10-11T09:50:30.811Z,1878.75
2018-10-11T09:51:30.757Z,1816.88
2018-10-11T09:52:30.734Z,1783.13
2018-10-11T09:53:30.714Z,1580.63
2018-10-11T09:54:30.742Z,1485.00
2018-10-11T09:55:30.663Z,1428.75
2018-10-11T09:56:30.611Z,1468.13
2018-10-11T09:57:30.578Z,1440.00
2018-10-11T09:58:30.547Z,1181.25
2018-10-11T09:59:30.513Z,1890.00
2018-10-11T10:00:30.501Z,1530.00
2018-10-11T10:01:30.447Z,1473.75
2018-10-11T10:02:30.414Z,1912.50
2018-10-11T10:03:30.379Z,1873.13
2018-10-11T10:04:30.360Z,2199.38
2018-10-11T10:05:30.380Z,1957.50
2018-10-11T10:06:30.318Z,1878.75
2018-10-11T10:07:30.263Z,1991.25
2018-10-11T10:08:30.223Z,1788.75
2018-10-11T10:09:30.197Z,2171.25
2018-10-11T10:10:30.170Z,2458.13
2018-10-11T10:11:30.164Z,2199.38
2018-10-11T10:12:30.101Z,2086.88
2018-10-11T10:13:30.067Z,1940.63
2018-10-11T10:14:30.039Z,1816.88
2018-10-11T10:15:30.102Z,1738.13
2018-10-11T10:16:29.982Z,1597.50
2018-10-11T10:17:29.968Z,1698.75
2018-10-11T10:18:29.916Z,1850.63
2018-10-11T10:19:29.883Z,1811.25
2018-10-11T10:20:29.850Z,1861.88
2018-10-11T10:21:29.827Z,1631.25
2018-10-11T10:22:29.805Z,1614.38
2018-10-11T10:23:29.750Z,1946.25
2018-10-11T10:24:29.728Z,1569.38
2018-10-11T10:25:29.698Z,1974.38
2018-10-11T10:26:29.693Z,1822.50
2018-10-11T10:27:29.681Z,1755.00
2018-10-11T10:28:29.600Z,2154.38
2018-10-11T10:29:29.571Z,1777.50
2018-10-11T10:30:29.538Z,1878.75
2018-10-11T10:31:29.505Z,2013.75
2018-10-11T10:32:29.492Z,1777.50
2018-10-11T10:33:29.436Z,1698.75
2018-10-11T10:34:29.404Z,1839.38
2018-10-11T10:35:29.373Z,2002.50
2018-10-11T10:36:29.347Z,1918.13
2018-10-11T10:37:29.342Z,1653.75
2018-10-11T10:38:29.284Z,1383.75
2018-10-11T10:39:29.252Z,2340.00
2018-10-11T10:40:29.213Z,2323.13
2018-10-11T10:41:29.182Z,2340.00
2018-10-11T10:42:29.159Z,2491.88
2018-10-11T10:43:29.149Z,2205.00
2018-10-11T10:44:29.087Z,2390.63
2018-10-11T10:45:29.057Z,2255.63
2018-10-11T10:46:29.027Z,2351.25
2018-10-11T10:47:29.019Z,2475.00
2018-10-11T10:48:28.970Z,2238.75
2018-10-11T10:49:28.943Z,2497.50
2018-10-11T10:50:28.907Z,2475.00
2018-10-11T10:51:28.875Z,2390.63
2018-10-11T10:52:28.866Z,2441.25
2018-10-11T10:53:28.833Z,2255.63
2018-10-11T10:54:28.776Z,2520.00
2018-10-11T10:55:28.744Z,2002.50
2018-10-11T10:56:28.729Z,1350.00
2018-10-11T10:57:28.691Z,2053.13
2018-10-11T10:58:28.681Z,2390.63
2018-10-11T10:59:28.622Z,2514.38
2018-10-11T11:00:28.600Z,2368.13
2018-10-11T11:01:28.570Z,1951.88
2018-10-11T11:02:28.540Z,1456.88
2018-10-11T11:03:28.512Z,1170.00
2018-10-11T11:04:28.496Z,2244.38
2018-10-11T11:05:28.443Z,2598.75
2018-10-11T11:06:28.411Z,2655.00
2018-10-11T11:07:28.441Z,2323.13
2018-10-11T11:08:28.355Z,1659.38
2018-10-11T11:09:28.351Z,1755.00
2018-10-11T11:10:28.295Z,1828.13
2018-10-11T11:11:28.263Z,1558.13
2018-10-11T11:12:28.225Z,1755.00
2018-10-11T11:13:28.194Z,1963.13
2018-10-11T11:14:28.171Z,1906.88
2018-10-11T11:15:28.165Z,1350.00
2018-10-11T11:16:28.099Z,1417.50
2018-10-11T11:17:28.069Z,1265.63
2018-10-11T11:18:28.038Z,1136.25
2018-10-11T11:19:28.008Z,1355.63
2018-10-11T11:20:28.011Z,1659.38
2018-10-11T11:21:27.956Z,1023.75
2018-10-11T11:22:27.922Z,973.13
2018-10-11T11:23:27.891Z,1113.75
2018-10-11T11:24:27.853Z,1575.00
2018-10-11T11:25:27.846Z,1749.38
2018-10-11T11:26:27.794Z,1372.50
2018-10-11T11:27:27.765Z,995.63
2018-10-11T11:28:27.735Z,1046.25
2018-10-11T11:29:27.700Z,1035.00
2018-10-11T11:30:27.687Z,1091.25
2018-10-11T11:31:27.672Z,1299.38
2018-10-11T11:32:27.640Z,1518.75
2018-10-11T11:33:27.575Z,1856.25
2018-10-11T11:34:27.542Z,1344.38
2018-10-11T11:35:27.509Z,1597.50
2018-10-11T11:36:27.475Z,1203.75
2018-10-11T11:37:27.439Z,1260.00
2018-10-11T11:38:27.434Z,1299.38
2018-10-11T11:39:27.378Z,1850.63
2018-10-11T11:40:27.353Z,1417.50
2018-10-11T11:41:27.320Z,1254.38
2018-10-11T11:42:27.313Z,1839.38
2018-10-11T11:43:27.280Z,2238.75
2018-10-11T11:44:27.218Z,2176.88
2018-10-11T11:45:27.183Z,1248.75
2018-10-11T11:46:27.157Z,2036.25
2018-10-11T11:47:27.126Z,2542.50
2018-10-11T11:48:27.112Z,2486.25
2018-10-11T11:49:27.053Z,1996.88
2018-10-11T11:50:27.028Z,1710.00
2018-10-11T11:51:26.991Z,1653.75
2018-10-11T11:52:26.991Z,2486.25
2018-10-11T11:53:26.967Z,2711.25
2018-10-11T11:54:26.907Z,2475.00
2018-10-11T11:55:26.869Z,1591.88
2018-10-11T11:56:26.834Z,1383.75
2018-10-11T11:57:26.801Z,945.00
2018-10-11T11:58:26.773Z,804.38
2018-10-11T11:59:26.762Z,748.13
2018-10-11T12:00:26.713Z,781.88
2018-10-11T12:01:26.680Z,793.13
2018-10-11T12:02:26.642Z,922.50
2018-10-11T12:03:26.614Z,995.63
2018-10-11T12:04:26.612Z,1102.50
2018-10-11T12:05:26.555Z,1231.88
2018-10-11T12:06:26.526Z,1355.63
2018-10-11T12:07:26.489Z,1400.63
2018-10-11T12:08:26.451Z,1411.88
2018-10-11T12:09:26.417Z,2115.00
2018-10-11T12:10:26.462Z,2317.50
2018-10-11T12:11:26.356Z,2289.38
2018-10-11T12:12:26.328Z,2126.25
2018-10-11T12:13:26.295Z,2446.88
2018-10-11T12:14:26.262Z,1800.00
2018-10-11T12:15:26.261Z,1833.75
2018-10-11T12:16:26.227Z,1563.75
2018-10-11T12:17:26.164Z,1136.25
2018-10-11T12:18:26.130Z,1158.75
2018-10-11T12:19:26.101Z,1333.13
2018-10-11T12:20:26.062Z,950.63
2018-10-11T12:21:26.057Z,1023.75
2018-10-11T12:22:25.999Z,990.00
2018-10-11T12:23:25.965Z,635.63
2018-10-11T12:24:25.941Z,607.50
2018-10-11T12:25:25.910Z,691.88
2018-10-11T12:26:25.899Z,945.00
2018-10-11T12:27:25.846Z,855.00
2018-10-11T12:28:25.868Z,1091.25
2018-10-11T12:29:25.774Z,1530.00
2018-10-11T12:30:25.743Z,1918.13
2018-10-11T12:31:25.737Z,1130.63
2018-10-11T12:32:25.709Z,855.00
2018-10-11T12:33:25.657Z,787.50
2018-10-11T12:34:25.615Z,838.13
2018-10-11T12:35:25.579Z,765.00
2018-10-11T12:36:25.568Z,686.25
2018-10-11T12:37:25.546Z,1091.25
2018-10-11T12:38:25.485Z,658.13
2018-10-11T12:39:25.458Z,742.50
2018-10-11T12:40:25.413Z,967.50
2018-10-11T12:41:25.407Z,1057.50
2018-10-11T12:42:25.396Z,1136.25
2018-10-11T12:43:25.316Z,1186.88